Time;durP1;ratioP1;P1;durP2;ratioP2;P2;SDS_P1;SDS_P2;PMS_P1;PMS_P2;Temp;Humidity;BMP_temperature;BMP_pressure;BME280_temperature;BME280_humidity;BME280_pressure;Samples;Min_cycle;Max_cycle;Signal;HPM_P1;HPM_P2
2023/04/08 06:29:39;;;;;;;5.07;2.25;;;8.90;99.90;;;;;;5792757;23;20054;-69
2023/04/08 06:32:06;;;;;;;4.20;2.55;;;8.90;99.90;;;;;;4962869;28;20401;-69
2023/04/08 06:34:31;;;;;;;5.30;2.88;;;8.90;99.90;;;;;;4967785;28;20043;-71
2023/04/08 06:36:57;;;;;;;5.35;2.70;;;9.00;99.90;;;;;;4970313;28;20050;-72
2023/04/08 06:39:23;;;;;;;7.95;3.72;;;9.10;99.90;;;;;;4985775;28;20088;-71
2023/04/08 06:41:49;;;;;;;5.30;2.45;;;9.10;99.90;;;;;;4966942;28;20035;-72
2023/04/08 06:44:15;;;;;;;5.85;2.78;;;9.20;99.90;;;;;;4986352;28;20508;-72
2023/04/08 06:46:41;;;;;;;5.63;2.85;;;9.20;99.90;;;;;;4968461;28;20050;-73
2023/04/08 06:49:11;;;;;;;5.80;2.70;;;9.20;99.90;;;;;;4979652;28;20069;-73
2023/04/08 06:51:37;;;;;;;4.32;2.22;;;9.10;99.90;;;;;;4967191;28;20062;-67
2023/04/08 06:54:03;;;;;;;4.93;2.50;;;9.20;99.90;;;;;;4980015;28;20058;-63
2023/04/08 06:56:29;;;;;;;5.60;3.15;;;9.20;99.90;;;;;;4967446;28;20062;-63
2023/04/08 06:58:55;;;;;;;4.70;2.63;;;9.10;99.90;;;;;;4979757;28;20029;-64
2023/04/08 07:01:21;;;;;;;4.82;2.78;;;9.20;99.90;;;;;;4957788;28;20175;-64
2023/04/08 07:03:47;;;;;;;4.55;2.47;;;9.10;99.90;;;;;;4978271;28;20374;-70
2023/04/08 07:06:13;;;;;;;6.18;3.45;;;9.00;99.90;;;;;;4967312;28;20061;-73
2023/04/08 07:08:38;;;;;;;4.45;2.95;;;9.00;99.90;;;;;;4979371;28;20554;-73
2023/04/08 07:11:04;;;;;;;5.57;2.47;;;9.00;99.90;;;;;;4967141;28;20066;-72
2023/04/08 07:13:30;;;;;;;5.30;2.83;;;9.00;99.90;;;;;;4977583;28;20168;-71
2023/04/08 07:15:56;;;;;;;4.18;2.45;;;9.00;99.90;;;;;;4968231;28;20042;-71
2023/04/08 07:18:22;;;;;;;7.45;3.20;;;9.00;99.90;;;;;;4976792;28;20029;-71
2023/04/08 07:20:54;;;;;;;16.08;6.65;;;9.10;99.90;;;;;;4968681;28;20034;-71
2023/04/08 07:23:20;;;;;;;11.27;4.95;;;9.10;99.90;;;;;;4967672;28;20027;-71
2023/04/08 07:25:47;;;;;;;9.82;3.72;;;9.20;99.90;;;;;;4968631;28;20102;-71
2023/04/08 07:28:12;;;;;;;4.63;2.38;;;9.30;99.90;;;;;;4970161;28;20034;-68
2023/04/08 07:30:38;;;;;;;5.35;2.55;;;9.20;99.90;;;;;;4969569;28;20400;-72
2023/04/08 07:33:04;;;;;;;5.88;2.40;;;9.20;99.90;;;;;;4967910;28;20034;-72
2023/04/08 07:35:30;;;;;;;7.97;3.25;;;9.30;99.90;;;;;;4964009;28;20042;-71
2023/04/08 07:37:56;;;;;;;4.55;2.35;;;9.50;99.90;;;;;;4950464;28;20482;-70
2023/04/08 07:40:22;;;;;;;5.55;3.00;;;9.50;99.90;;;;;;4962405;28;20505;-71
2023/04/08 07:42:48;;;;;;;6.95;3.22;;;9.60;99.90;;;;;;4970715;28;20034;-69
2023/04/08 07:45:14;;;;;;;6.10;3.05;;;9.70;99.90;;;;;;4963084;28;20031;-70
2023/04/08 07:47:40;;;;;;;5.18;3.15;;;9.70;99.90;;;;;;4970560;28;20027;-71
2023/04/08 07:50:07;;;;;;;5.22;2.83;;;9.70;99.90;;;;;;4964217;28;20050;-71
2023/04/08 07:52:33;;;;;;;7.55;3.55;;;9.70;99.90;;;;;;4955594;28;20034;-70
2023/04/08 07:55:00;;;;;;;5.95;3.22;;;9.80;99.90;;;;;;4953693;28;20063;-71
2023/04/08 07:57:26;;;;;;;6.93;3.15;;;9.90;99.90;;;;;;4964596;28;20034;-70
2023/04/08 07:59:51;;;;;;;10.02;3.70;;;10.10;99.90;;;;;;4963666;28;20031;-72
2023/04/08 08:02:17;;;;;;;3.92;2.85;;;10.10;99.90;;;;;;4969718;28;20049;-70
2023/04/08 08:04:43;;;;;;;5.85;3.10;;;10.10;99.90;;;;;;4964538;28;20459;-72
2023/04/08 08:07:09;;;;;;;6.00;2.83;;;10.30;99.90;;;;;;4973749;28;20034;-71
2023/04/08 08:09:35;;;;;;;11.35;2.80;;;10.50;99.90;;;;;;4964398;28;20039;-72
2023/04/08 08:12:00;;;;;;;5.50;3.05;;;10.60;99.90;;;;;;4968952;28;20039;-71
2023/04/08 08:14:26;;;;;;;10.57;3.53;;;10.70;99.90;;;;;;4965744;28;20093;-71
2023/04/08 08:16:53;;;;;;;7.03;3.28;;;10.80;99.90;;;;;;4971818;28;20077;-71
2023/04/08 08:19:19;;;;;;;4.97;2.53;;;10.80;99.90;;;;;;4967309;28;20027;-72
2023/04/08 08:21:45;;;;;;;4.88;3.30;;;10.90;99.90;;;;;;4969580;28;20031;-72
2023/04/08 08:24:11;;;;;;;6.90;3.28;;;11.10;99.90;;;;;;4968180;28;20039;-72
2023/04/08 08:26:37;;;;;;;5.10;2.67;;;11.30;99.90;;;;;;4970645;28;20038;-73
2023/04/08 08:29:05;;;;;;;6.07;3.45;;;11.40;99.90;;;;;;4969070;28;20042;-71
2023/04/08 08:31:31;;;;;;;9.40;2.90;;;11.50;99.90;;;;;;4969037;28;20401;-71
2023/04/08 08:33:56;;;;;;;14.23;5.68;;;11.50;99.90;;;;;;4969131;28;20035;-70
2023/04/08 08:36:22;;;;;;;4.38;2.35;;;11.60;99.90;;;;;;4970279;28;20041;-69
2023/04/08 08:38:48;;;;;;;5.88;3.53;;;11.80;99.60;;;;;;4975573;28;20405;-72
2023/04/08 08:41:14;;;;;;;6.13;2.95;;;11.90;99.80;;;;;;4973821;28;20394;-72
2023/04/08 08:43:40;;;;;;;5.22;2.72;;;12.10;99.90;;;;;;4971176;28;20110;-73
2023/04/08 08:46:12;;;;;;;6.30;2.60;;;12.10;98.50;;;;;;4953558;28;20059;-75
2023/04/08 08:48:39;;;;;;;8.27;2.75;;;11.80;99.10;;;;;;4972795;28;20039;-72
2023/04/08 08:51:12;;;;;;;8.90;3.40;;;11.80;98.60;;;;;;4973111;28;20738;-75
2023/04/08 08:53:38;;;;;;;7.72;3.10;;;11.70;99.10;;;;;;4971448;28;20027;-74
2023/04/08 08:56:07;;;;;;;8.18;2.90;;;11.80;98.90;;;;;;4973397;28;20438;-71
2023/04/08 08:58:34;;;;;;;7.38;3.33;;;11.80;99.10;;;;;;4971803;28;20031;-72
2023/04/08 09:00:59;;;;;;;7.50;3.38;;;12.00;98.60;;;;;;4968460;28;20031;-73
2023/04/08 09:03:27;;;;;;;6.35;3.83;;;12.10;99.90;;;;;;4973585;28;20031;-72
2023/04/08 09:05:59;;;;;;;3.88;2.78;;;12.20;98.10;;;;;;4970733;28;20130;-72
2023/04/08 09:08:33;;;;;;;9.60;3.35;;;12.30;98.10;;;;;;4969904;28;20042;-76
2023/04/08 09:11:22;;;;;;;5.00;2.80;;;12.50;99.60;;;;;;4971748;28;20784;-75
2023/04/08 09:13:49;;;;;;;6.90;2.78;;;12.80;98.80;;;;;;4943444;28;20042;-74
2023/04/08 09:16:17;;;;;;;6.97;3.25;;;12.80;97.90;;;;;;4971632;28;20049;-75
2023/04/08 09:18:47;;;;;;;4.72;2.47;;;13.20;97.60;;;;;;4971334;28;20118;-75
2023/04/08 09:21:16;;;;;;;5.97;3.13;;;13.30;95.90;;;;;;4973041;28;20076;-74
2023/04/08 09:23:47;;;;;;;6.22;3.17;;;13.50;96.50;;;;;;4978203;28;20043;-75
2023/04/08 09:26:23;;;;;;;7.13;3.13;;;12.90;94.80;;;;;;4973215;28;20105;-78
2023/04/08 09:29:07;;;;;;;4.75;2.60;;;13.10;96.20;;;;;;4970203;28;20757;-76
2023/04/08 09:31:37;;;;;;;6.22;3.30;;;13.60;95.70;;;;;;4972578;28;20386;-76
2023/04/08 09:34:15;;;;;;;5.85;3.15;;;13.70;94.60;;;;;;4970979;28;20037;-77
2023/04/08 09:36:41;;;;;;;5.10;3.15;;;13.80;94.90;;;;;;4974172;28;20098;-76
2023/04/08 09:39:07;;;;;;;6.43;2.88;;;13.90;94.80;;;;;;4970165;28;20037;-69
2023/04/08 09:41:35;;;;;;;5.85;3.10;;;14.00;92.80;;;;;;4976374;28;20023;-69
2023/04/08 09:44:05;;;;;;;8.75;2.65;;;13.70;93.30;;;;;;4985744;28;20039;-72
2023/04/08 09:47:17;;;;;;;5.82;3.08;;;13.90;93.70;;;;;;4963924;28;20033;-71
2023/04/08 09:49:50;;;;;;;10.07;3.75;;;13.90;93.90;;;;;;4964853;28;20035;-70
2023/04/08 09:52:28;;;;;;;8.48;3.70;;;14.20;95.70;;;;;;4972228;28;20057;-72
2023/04/08 09:55:04;;;;;;;7.47;3.58;;;14.10;95.80;;;;;;4971989;28;20039;-71
2023/04/08 09:57:57;;;;;;;8.02;3.42;;;13.90;95.50;;;;;;4972906;28;20034;-72
2023/04/08 10:00:33;;;;;;;5.40;3.05;;;13.80;96.30;;;;;;4974751;28;20027;-72
2023/04/08 10:03:23;;;;;;;6.50;3.50;;;13.80;96.30;;;;;;4970614;28;20059;-71
2023/04/08 10:05:52;;;;;;;4.28;2.70;;;13.90;96.20;;;;;;4966811;28;20050;-71
2023/04/08 10:08:25;;;;;;;7.32;3.92;;;14.00;96.20;;;;;;4971884;28;20041;-72
2023/04/08 10:10:52;;;;;;;7.60;3.47;;;13.80;96.30;;;;;;4976086;28;20189;-71
2023/04/08 10:13:19;;;;;;;6.47;3.38;;;13.90;96.10;;;;;;4969720;28;20039;-72
2023/04/08 10:15:46;;;;;;;5.05;2.78;;;13.70;96.50;;;;;;4969255;28;20088;-71
2023/04/08 10:18:13;;;;;;;6.32;2.75;;;13.50;96.30;;;;;;4972374;28;20402;-71
2023/04/08 10:20:39;;;;;;;9.52;3.47;;;13.40;96.30;;;;;;4973771;28;20512;-71
2023/04/08 10:23:12;;;;;;;5.20;2.75;;;13.40;96.30;;;;;;4972113;28;20059;-71
2023/04/08 10:25:48;;;;;;;6.38;2.95;;;13.40;97.00;;;;;;4972229;28;20022;-71
2023/04/08 10:28:14;;;;;;;4.75;2.92;;;13.20;96.50;;;;;;4973041;28;20118;-71
2023/04/08 10:30:51;;;;;;;8.88;3.70;;;13.30;96.40;;;;;;4977664;28;20482;-71
2023/04/08 10:33:29;;;;;;;7.72;3.58;;;13.30;96.40;;;;;;4972401;28;20019;-72
2023/04/08 10:36:10;;;;;;;8.23;3.38;;;13.10;96.60;;;;;;4978884;28;20031;-72
2023/04/08 10:38:43;;;;;;;6.72;3.10;;;12.90;96.90;;;;;;4962250;28;20034;-70
2023/04/08 10:41:20;;;;;;;8.50;3.28;;;12.80;97.10;;;;;;4965041;28;20041;-71
2023/04/08 10:43:46;;;;;;;6.15;3.08;;;12.70;96.30;;;;;;4967622;28;20039;-71
2023/04/08 10:46:12;;;;;;;8.23;3.78;;;12.70;96.60;;;;;;4978903;28;20030;-72
2023/04/08 10:48:38;;;;;;;8.45;3.25;;;12.70;96.70;;;;;;4967719;28;20035;-71
2023/04/08 10:51:04;;;;;;;8.63;4.07;;;12.60;96.90;;;;;;4978024;28;20039;-71
2023/04/08 10:53:35;;;;;;;7.45;2.92;;;12.60;97.30;;;;;;4972017;28;20034;-71
2023/04/08 10:56:15;;;;;;;5.40;3.17;;;12.60;97.70;;;;;;4977224;28;20627;-70
2023/04/08 10:58:49;;;;;;;5.25;3.15;;;12.50;97.90;;;;;;4968664;28;20030;-71
2023/04/08 11:01:15;;;;;;;6.45;3.53;;;12.40;98.40;;;;;;4971569;28;20019;-70
2023/04/08 11:03:42;;;;;;;9.63;3.67;;;12.50;98.50;;;;;;4971062;28;20089;-70
2023/04/08 11:06:08;;;;;;;8.15;3.17;;;12.60;98.40;;;;;;4961510;28;20034;-72
2023/04/08 11:08:35;;;;;;;6.30;3.40;;;12.70;98.50;;;;;;4969850;28;20049;-72
2023/04/08 11:11:03;;;;;;;7.75;4.50;;;12.90;98.10;;;;;;4970325;28;20061;-72
2023/04/08 11:13:29;;;;;;;7.35;3.55;;;12.90;97.70;;;;;;4965145;28;20027;-72
2023/04/08 11:15:59;;;;;;;9.32;3.85;;;12.80;98.10;;;;;;4973549;28;20031;-72
2023/04/08 11:18:26;;;;;;;7.32;3.17;;;12.80;95.60;;;;;;4966896;28;20023;-72
2023/04/08 11:20:52;;;;;;;8.05;3.00;;;12.80;94.60;;;;;;4954281;28;20102;-72
2023/04/08 11:23:19;;;;;;;4.13;2.42;;;13.00;95.10;;;;;;4971154;28;20506;-72
2023/04/08 11:25:46;;;;;;;7.60;3.08;;;13.00;94.90;;;;;;4972279;28;20467;-72
2023/04/08 11:28:13;;;;;;;8.10;3.22;;;13.20;93.20;;;;;;4976072;28;20628;-72
2023/04/08 11:30:40;;;;;;;6.32;2.50;;;12.90;92.40;;;;;;4982092;28;20081;-71
2023/04/08 11:33:11;;;;;;;4.88;2.80;;;13.30;91.80;;;;;;4969680;28;20560;-72
2023/04/08 11:35:42;;;;;;;5.32;2.47;;;13.80;91.40;;;;;;4973102;28;20027;-75
2023/04/08 11:38:10;;;;;;;4.03;2.25;;;14.10;90.30;;;;;;4962008;28;20406;-74
2023/04/08 11:40:36;;;;;;;5.03;2.13;;;14.40;89.70;;;;;;4964812;28;20356;-74
2023/04/08 11:43:10;;;;;;;6.57;2.33;;;14.80;92.70;;;;;;4955507;28;20474;-73
2023/04/08 11:45:40;;;;;;;3.95;1.98;;;14.90;91.70;;;;;;4969284;28;20098;-74
2023/04/08 11:48:15;;;;;;;5.47;2.60;;;14.80;91.50;;;;;;4968998;28;20023;-73
2023/04/08 11:50:41;;;;;;;4.45;2.40;;;14.80;90.20;;;;;;4965718;28;20542;-72
2023/04/08 11:53:24;;;;;;;5.63;2.75;;;15.60;91.30;;;;;;4968084;28;20161;-72
2023/04/08 11:55:50;;;;;;;8.10;3.25;;;15.90;90.80;;;;;;4971996;28;20034;-72
2023/04/08 11:58:16;;;;;;;7.03;3.22;;;15.60;91.30;;;;;;4972578;28;20097;-72
2023/04/08 12:00:44;;;;;;;8.45;3.22;;;15.30;92.60;;;;;;4969113;28;20093;-71
2023/04/08 12:03:10;;;;;;;5.72;2.83;;;15.00;92.60;;;;;;4975977;28;20076;-72
2023/04/08 12:05:36;;;;;;;4.72;2.67;;;14.80;92.60;;;;;;4984952;28;20031;-72
2023/04/08 12:08:02;;;;;;;6.30;3.35;;;14.70;92.40;;;;;;4955368;28;22174;-72
2023/04/08 12:10:28;;;;;;;5.70;2.83;;;14.70;92.40;;;;;;4970408;28;20073;-72
2023/04/08 12:12:54;;;;;;;9.38;3.45;;;14.90;92.60;;;;;;4970816;28;20038;-72
2023/04/08 12:15:19;;;;;;;5.43;2.70;;;15.10;93.00;;;;;;4968024;28;20393;-71
2023/04/08 12:17:45;;;;;;;19.85;3.15;;;15.60;91.40;;;;;;4973751;28;20620;-72
2023/04/08 12:20:11;;;;;;;4.15;2.13;;;15.90;88.30;;;;;;4973976;28;20045;-72
2023/04/08 12:22:38;;;;;;;6.15;3.35;;;15.90;88.40;;;;;;4975938;28;20038;-72
2023/04/08 12:25:05;;;;;;;4.93;2.58;;;16.00;86.90;;;;;;4972591;28;20027;-72
2023/04/08 12:27:34;;;;;;;7.18;2.72;;;15.90;88.00;;;;;;4977075;28;20023;-72
2023/04/08 12:30:01;;;;;;;5.82;2.80;;;16.10;89.10;;;;;;4973847;28;20031;-72
2023/04/08 12:32:27;;;;;;;5.95;3.08;;;16.10;88.00;;;;;;4975230;28;20027;-72
2023/04/08 12:34:53;;;;;;;7.03;2.92;;;15.80;89.30;;;;;;4971414;28;20039;-72
2023/04/08 12:37:19;;;;;;;5.13;2.90;;;16.10;90.10;;;;;;4976740;28;20039;-73
2023/04/08 12:39:46;;;;;;;5.47;3.17;;;16.40;90.10;;;;;;4973917;28;20050;-73
2023/04/08 12:42:12;;;;;;;5.50;2.92;;;15.80;87.30;;;;;;4991805;28;20026;-72
2023/04/08 12:44:38;;;;;;;5.40;2.42;;;16.30;88.70;;;;;;4974509;28;20434;-72
2023/04/08 12:47:04;;;;;;;5.57;3.15;;;17.30;84.20;;;;;;4976613;28;20079;-72
2023/04/08 12:49:30;;;;;;;5.35;2.60;;;16.70;83.00;;;;;;4973724;28;20110;-72
2023/04/08 12:51:55;;;;;;;3.03;1.90;;;17.60;84.10;;;;;;4977228;28;20063;-71
2023/04/08 12:54:21;;;;;;;3.85;2.35;;;17.90;81.10;;;;;;4973885;28;20019;-72
2023/04/08 12:56:47;;;;;;;3.88;1.83;;;17.20;83.60;;;;;;4977046;28;20125;-71
2023/04/08 12:59:14;;;;;;;4.63;2.45;;;16.20;83.20;;;;;;4972835;28;20023;-70
2023/04/08 13:01:40;;;;;;;4.70;2.28;;;17.50;82.90;;;;;;4975933;28;20390;-70
2023/04/08 13:04:06;;;;;;;3.47;1.88;;;18.10;80.80;;;;;;4973927;28;20039;-71
2023/04/08 13:06:32;;;;;;;3.60;1.92;;;18.50;79.20;;;;;;4976210;28;20121;-72
2023/04/08 13:08:58;;;;;;;7.25;2.17;;;18.80;78.00;;;;;;4973294;28;20199;-71
2023/04/08 13:11:24;;;;;;;6.25;2.72;;;17.80;78.40;;;;;;4975611;28;20045;-71
2023/04/08 13:13:49;;;;;;;9.95;4.63;;;18.30;78.70;;;;;;4969507;28;20082;-71
2023/04/08 13:16:15;;;;;;;5.03;2.55;;;17.30;81.00;;;;;;4975699;28;20049;-72
2023/04/08 13:18:41;;;;;;;10.00;4.30;;;17.50;80.90;;;;;;4968279;28;20059;-71
2023/04/08 13:21:08;;;;;;;6.82;2.85;;;17.90;81.80;;;;;;4960772;28;20114;-71
2023/04/08 13:23:34;;;;;;;5.38;2.78;;;19.60;78.90;;;;;;4972739;28;20793;-71
2023/04/08 13:26:01;;;;;;;4.30;1.88;;;20.00;75.00;;;;;;4973878;28;20040;-71
2023/04/08 13:28:26;;;;;;;3.55;2.00;;;20.90;74.60;;;;;;4973328;28;20062;-70
2023/04/08 13:30:53;;;;;;;5.82;2.63;;;20.40;73.50;;;;;;4973954;28;20062;-71
2023/04/08 13:33:18;;;;;;;6.05;2.20;;;20.40;73.20;;;;;;4974451;28;20030;-72
2023/04/08 13:35:44;;;;;;;3.35;1.90;;;20.90;70.70;;;;;;4973262;28;20027;-73
2023/04/08 13:38:11;;;;;;;4.95;2.00;;;20.70;72.10;;;;;;4976794;28;20506;-72
2023/04/08 13:40:37;;;;;;;4.68;1.98;;;20.90;70.70;;;;;;4972602;28;20042;-72
2023/04/08 13:43:03;;;;;;;3.22;1.70;;;21.20;71.20;;;;;;4976055;28;20038;-72
2023/04/08 13:45:28;;;;;;;4.50;2.35;;;20.60;71.10;;;;;;4972250;28;20034;-73
2023/04/08 13:47:55;;;;;;;4.70;2.15;;;19.70;73.30;;;;;;4970539;28;20042;-72
2023/04/08 13:50:21;;;;;;;6.13;2.35;;;20.10;73.80;;;;;;4970012;28;20045;-73
2023/04/08 13:52:47;;;;;;;4.70;1.90;;;20.40;73.40;;;;;;4971028;28;20035;-72
2023/04/08 13:55:12;;;;;;;4.90;1.83;;;21.20;71.90;;;;;;4972483;28;20027;-69
2023/04/08 13:57:38;;;;;;;3.80;1.83;;;22.20;69.20;;;;;;4972244;28;20026;-71
2023/04/08 14:00:05;;;;;;;6.75;2.53;;;21.50;69.30;;;;;;4972003;28;20050;-73
2023/04/08 14:02:31;;;;;;;3.03;1.67;;;21.60;69.20;;;;;;4973891;28;20034;-69
2023/04/08 14:04:57;;;;;;;5.20;1.95;;;21.10;70.80;;;;;;4972425;28;20033;-69
2023/04/08 14:07:23;;;;;;;3.40;1.83;;;22.40;68.70;;;;;;4973924;28;20034;-71
2023/04/08 14:09:48;;;;;;;4.22;1.55;;;22.20;68.00;;;;;;4972487;28;20031;-71
2023/04/08 14:12:14;;;;;;;3.50;1.38;;;21.20;68.60;;;;;;4973921;28;20063;-67
2023/04/08 14:14:40;;;;;;;3.55;2.03;;;20.10;70.90;;;;;;4972680;28;20435;-73
2023/04/08 14:17:05;;;;;;;3.25;1.70;;;19.50;73.50;;;;;;4974440;28;20138;-68
2023/04/08 14:19:31;;;;;;;4.25;2.33;;;18.80;74.30;;;;;;4970714;28;20390;-69
2023/04/08 14:21:57;;;;;;;5.63;2.70;;;18.30;77.00;;;;;;4975638;28;20058;-69
2023/04/08 14:24:23;;;;;;;5.20;1.90;;;17.80;78.30;;;;;;4965160;28;20117;-70
2023/04/08 14:26:49;;;;;;;4.70;1.90;;;17.50;80.30;;;;;;4972956;28;20039;-70
2023/04/08 14:29:15;;;;;;;3.80;1.85;;;17.40;80.50;;;;;;4982001;28;20038;-69
2023/04/08 14:31:40;;;;;;;4.28;2.42;;;18.40;78.90;;;;;;4980270;28;20542;-69
2023/04/08 14:34:06;;;;;;;5.10;2.33;;;18.20;79.40;;;;;;4971963;28;20027;-70
2023/04/08 14:36:32;;;;;;;5.25;1.83;;;18.50;79.20;;;;;;4974497;28;20063;-71
2023/04/08 14:38:58;;;;;;;4.45;2.53;;;18.50;79.70;;;;;;4972413;28;20448;-70
2023/04/08 14:41:27;;;;;;;4.53;2.30;;;18.30;80.20;;;;;;4972682;28;20107;-73
2023/04/08 14:43:53;;;;;;;4.13;2.22;;;17.80;80.80;;;;;;4968606;28;20513;-68
2023/04/08 14:46:20;;;;;;;4.70;1.95;;;17.00;83.10;;;;;;4974111;28;20109;-69
2023/04/08 14:48:46;;;;;;;5.68;2.42;;;16.20;86.40;;;;;;4965414;28;20276;-68
2023/04/08 14:51:12;;;;;;;8.13;3.13;;;15.90;88.80;;;;;;4973739;28;20093;-69
2023/04/08 14:53:38;;;;;;;3.78;2.05;;;15.60;90.40;;;;;;4967503;28;20515;-68
2023/04/08 14:56:05;;;;;;;4.88;2.05;;;15.20;91.70;;;;;;4973880;28;20058;-69
2023/04/08 14:58:30;;;;;;;5.03;2.38;;;15.10;92.90;;;;;;4971523;28;20035;-70
2023/04/08 15:00:56;;;;;;;12.48;2.88;;;15.00;93.80;;;;;;4972972;28;20049;-69
2023/04/08 15:03:22;;;;;;;5.82;2.00;;;14.80;95.00;;;;;;4972140;28;20035;-71
2023/04/08 15:05:48;;;;;;;7.20;2.65;;;14.80;95.10;;;;;;4972383;28;20190;-70
2023/04/08 15:08:14;;;;;;;5.38;2.83;;;14.40;95.40;;;;;;4972875;28;20034;-70
2023/04/08 15:10:40;;;;;;;5.07;2.22;;;14.40;96.10;;;;;;4971085;28;20022;-70
2023/04/08 15:13:06;;;;;;;3.92;2.40;;;14.40;97.10;;;;;;4974002;28;20039;-68
2023/04/08 15:15:31;;;;;;;5.25;2.22;;;14.30;97.50;;;;;;4971337;28;20037;-71
2023/04/08 15:17:57;;;;;;;5.63;2.38;;;14.30;97.70;;;;;;4956400;28;20390;-69
2023/04/08 15:20:23;;;;;;;6.50;2.42;;;14.20;97.60;;;;;;4971134;28;20027;-70
2023/04/08 15:22:49;;;;;;;3.03;1.75;;;14.30;97.60;;;;;;4974162;28;20122;-70
2023/04/08 15:25:14;;;;;;;4.15;1.92;;;14.20;97.30;;;;;;4970242;28;20081;-72
2023/04/08 15:27:41;;;;;;;5.45;2.10;;;14.20;96.90;;;;;;4971743;28;20039;-71
2023/04/08 15:30:08;;;;;;;4.40;1.63;;;14.30;96.80;;;;;;4962600;28;20061;-71
2023/04/08 15:32:33;;;;;;;3.15;1.35;;;14.20;96.80;;;;;;4971277;28;20046;-70
2023/04/08 15:35:00;;;;;;;7.13;1.85;;;14.20;96.90;;;;;;4970968;28;20023;-70
2023/04/08 15:37:26;;;;;;;2.08;1.45;;;14.10;97.10;;;;;;4973905;28;20518;-73
2023/04/08 15:39:52;;;;;;;4.82;1.75;;;14.40;96.50;;;;;;4968049;28;20030;-73
2023/04/08 15:42:19;;;;;;;3.30;1.40;;;14.40;96.70;;;;;;4972686;28;20039;-72
2023/04/08 15:44:45;;;;;;;2.72;1.63;;;14.40;96.70;;;;;;4967491;28;20027;-72
2023/04/08 15:47:11;;;;;;;5.57;1.40;;;14.70;96.50;;;;;;4972580;28;20124;-70
2023/04/08 15:49:37;;;;;;;3.42;1.70;;;14.80;95.90;;;;;;4972886;28;20031;-69
2023/04/08 15:52:04;;;;;;;7.50;1.60;;;14.60;95.60;;;;;;4976961;28;20026;-71
2023/04/08 15:54:32;;;;;;;2.45;1.52;;;15.00;95.20;;;;;;4970675;28;20399;-73
2023/04/08 15:56:57;;;;;;;2.95;1.33;;;15.10;94.50;;;;;;4975700;28;20034;-70
2023/04/08 15:59:23;;;;;;;3.53;1.48;;;15.40;93.90;;;;;;4969513;28;20039;-71
2023/04/08 16:01:49;;;;;;;4.97;2.00;;;15.40;93.70;;;;;;4974906;28;20117;-71
2023/04/08 16:04:16;;;;;;;3.60;1.70;;;14.70;94.50;;;;;;4973266;28;20414;-72
2023/04/08 16:06:45;;;;;;;3.45;1.58;;;14.80;94.70;;;;;;4975934;28;20125;-72
2023/04/08 16:09:11;;;;;;;3.88;1.95;;;14.40;95.50;;;;;;4973165;28;20031;-69
2023/04/08 16:11:38;;;;;;;3.60;1.80;;;14.40;95.80;;;;;;4972852;28;20042;-70
2023/04/08 16:14:04;;;;;;;2.92;1.73;;;14.50;95.00;;;;;;4974247;28;20805;-71
2023/04/08 16:16:30;;;;;;;2.88;1.50;;;14.20;95.90;;;;;;4977141;28;20031;-70
2023/04/08 16:18:56;;;;;;;3.75;2.15;;;14.20;95.80;;;;;;4974646;28;20061;-68
2023/04/08 16:21:22;;;;;;;2.63;1.38;;;14.60;95.30;;;;;;4977840;28;20030;-66
2023/04/08 16:23:48;;;;;;;3.72;1.88;;;14.80;95.10;;;;;;4974613;28;20038;-71
2023/04/08 16:26:13;;;;;;;3.60;1.70;;;14.90;94.70;;;;;;4975532;28;20369;-67
2023/04/08 16:28:39;;;;;;;3.90;1.58;;;14.90;94.90;;;;;;4972544;28;20039;-69
2023/04/08 16:31:06;;;;;;;3.08;1.30;;;14.90;94.40;;;;;;4974728;28;20045;-71
2023/04/08 16:33:32;;;;;;;4.70;1.80;;;14.50;94.90;;;;;;4969341;28;20035;-70
2023/04/08 16:35:59;;;;;;;6.53;1.73;;;14.60;95.00;;;;;;4975243;28;20027;-70
2023/04/08 16:38:26;;;;;;;4.35;1.55;;;14.60;95.30;;;;;;4974791;28;20093;-68
2023/04/08 16:40:55;;;;;;;1.92;1.17;;;14.40;95.30;;;;;;4974851;28;20030;-70
2023/04/08 16:43:21;;;;;;;3.92;2.08;;;14.30;95.90;;;;;;4975205;28;20037;-69
2023/04/08 16:45:47;;;;;;;5.10;2.17;;;13.80;96.70;;;;;;4974421;28;20031;-68
2023/04/08 16:48:13;;;;;;;5.25;2.03;;;14.00;97.00;;;;;;4969205;28;20038;-70
2023/04/08 16:50:41;;;;;;;3.72;1.95;;;14.00;97.00;;;;;;4968818;28;20026;-70
2023/04/08 16:53:08;;;;;;;4.47;2.13;;;14.00;96.90;;;;;;4968415;28;20096;-70
2023/04/08 16:55:35;;;;;;;3.40;2.00;;;14.00;96.90;;;;;;4976188;28;20026;-68
2023/04/08 16:58:02;;;;;;;2.38;1.30;;;14.10;97.00;;;;;;4971533;28;20026;-69
2023/04/08 17:00:29;;;;;;;4.00;2.05;;;14.20;96.70;;;;;;4975339;28;20483;-68
2023/04/08 17:02:57;;;;;;;2.53;1.35;;;14.00;96.90;;;;;;4972538;28;20042;-67
2023/04/08 17:05:26;;;;;;;5.00;2.22;;;13.90;96.90;;;;;;4972039;28;20039;-72
2023/04/08 17:07:55;;;;;;;3.85;1.52;;;13.90;96.90;;;;;;4967380;28;20541;-68
2023/04/08 17:10:22;;;;;;;3.58;1.67;;;13.70;97.70;;;;;;4974179;28;20035;-68
2023/04/08 17:12:48;;;;;;;4.07;1.90;;;13.40;98.90;;;;;;4970302;28;20030;-68
2023/04/08 17:15:13;;;;;;;4.82;2.67;;;13.50;99.90;;;;;;4975728;28;20241;-71
2023/04/08 17:17:40;;;;;;;4.22;2.35;;;13.40;99.90;;;;;;4971685;28;20061;-70
2023/04/08 17:20:07;;;;;;;7.00;2.65;;;13.40;99.90;;;;;;4972247;28;20054;-70
2023/04/08 17:22:32;;;;;;;5.93;2.55;;;13.40;99.90;;;;;;4976106;28;20112;-69
2023/04/08 17:24:59;;;;;;;6.07;2.28;;;13.30;99.90;;;;;;4972364;28;20157;-70
2023/04/08 17:27:25;;;;;;;4.50;2.47;;;13.30;99.90;;;;;;4968316;28;20098;-69
2023/04/08 17:29:56;;;;;;;4.63;2.53;;;13.10;99.90;;;;;;4966538;28;20151;-67
2023/04/08 17:32:25;;;;;;;9.75;2.00;;;13.10;99.90;;;;;;4972063;28;20031;-66
2023/04/08 17:34:51;;;;;;;4.18;2.40;;;13.00;99.90;;;;;;4971796;28;20113;-69
2023/04/08 17:37:17;;;;;;;3.90;2.28;;;12.90;99.90;;;;;;4972225;28;20126;-69
2023/04/08 17:39:43;;;;;;;7.03;2.67;;;12.90;99.90;;;;;;4972663;28;20026;-69
2023/04/08 17:42:10;;;;;;;5.65;2.55;;;12.90;99.90;;;;;;4972424;28;20394;-70
2023/04/08 17:44:36;;;;;;;5.43;2.50;;;12.90;99.90;;;;;;4970267;28;20716;-68
2023/04/08 17:47:05;;;;;;;5.72;2.38;;;12.80;99.90;;;;;;4972785;28;20042;-68
2023/04/08 17:49:31;;;;;;;3.38;1.80;;;12.80;99.90;;;;;;4972264;28;20056;-69
2023/04/08 17:51:56;;;;;;;3.83;1.95;;;12.70;99.90;;;;;;4973854;28;20071;-70
2023/04/08 17:54:23;;;;;;;4.60;2.38;;;12.70;99.90;;;;;;4971823;28;20031;-69
2023/04/08 17:56:49;;;;;;;6.22;2.45;;;12.70;99.90;;;;;;4973290;28;20033;-69
2023/04/08 17:59:14;;;;;;;9.57;2.60;;;12.70;99.90;;;;;;4974414;28;20117;-70
2023/04/08 18:01:40;;;;;;;3.15;1.63;;;12.70;99.90;;;;;;4972518;28;20030;-70
2023/04/08 18:04:07;;;;;;;4.30;2.22;;;12.70;99.90;;;;;;4975828;28;20038;-69
2023/04/08 18:06:35;;;;;;;4.43;2.35;;;12.60;99.90;;;;;;4971340;28;20046;-70
2023/04/08 18:09:02;;;;;;;6.07;3.13;;;12.60;99.90;;;;;;4971893;28;21679;-71
2023/04/08 18:11:28;;;;;;;4.00;2.05;;;12.50;99.90;;;;;;4985138;28;20031;-69
2023/04/08 18:13:54;;;;;;;5.88;3.10;;;12.50;99.90;;;;;;4968754;28;20039;-68
2023/04/08 18:16:21;;;;;;;4.78;2.42;;;12.40;99.90;;;;;;4972287;28;20095;-69
2023/04/08 18:18:47;;;;;;;6.13;3.10;;;12.40;99.90;;;;;;4966865;28;20041;-70
2023/04/08 18:21:16;;;;;;;12.02;3.33;;;12.20;99.90;;;;;;4968872;28;20097;-70
2023/04/08 18:23:45;;;;;;;5.38;2.83;;;12.30;99.90;;;;;;4962346;28;20043;-70
2023/04/08 18:26:11;;;;;;;8.23;2.80;;;12.20;99.90;;;;;;4963229;28;20502;-67
2023/04/08 18:28:37;;;;;;;8.82;4.20;;;12.20;99.90;;;;;;4972644;28;20038;-68
2023/04/08 18:31:02;;;;;;;7.32;2.88;;;12.20;99.90;;;;;;4974132;28;20035;-70
2023/04/08 18:33:28;;;;;;;4.88;2.83;;;12.20;99.90;;;;;;4967951;28;20024;-60
2023/04/08 18:35:54;;;;;;;5.43;2.47;;;12.20;99.90;;;;;;4971071;28;20062;-59
2023/04/08 18:38:20;;;;;;;5.05;2.60;;;12.30;99.90;;;;;;4972469;28;20034;-62
2023/04/08 18:40:46;;;;;;;4.97;2.95;;;12.40;99.90;;;;;;4975923;28;20114;-59
2023/04/08 18:43:12;;;;;;;4.85;2.30;;;12.40;99.90;;;;;;4972251;28;20488;-71
2023/04/08 18:45:40;;;;;;;4.20;2.40;;;12.30;99.90;;;;;;4978012;28;20042;-72
2023/04/08 18:48:05;;;;;;;5.80;2.47;;;12.30;99.90;;;;;;4971897;28;20027;-70
2023/04/08 18:50:31;;;;;;;3.83;1.90;;;12.30;99.90;;;;;;4977323;28;20054;-73
2023/04/08 18:52:57;;;;;;;6.13;2.63;;;12.20;99.90;;;;;;4971793;28;20170;-71
2023/04/08 18:55:23;;;;;;;6.10;2.80;;;12.30;99.90;;;;;;4978715;28;20018;-72
2023/04/08 18:57:49;;;;;;;4.95;2.28;;;12.20;99.90;;;;;;4970735;28;20019;-72
2023/04/08 19:00:15;;;;;;;6.55;2.58;;;12.10;99.90;;;;;;4979183;28;20022;-71
2023/04/08 19:02:41;;;;;;;4.13;2.22;;;12.10;99.90;;;;;;4970077;28;20038;-70
2023/04/08 19:05:07;;;;;;;5.82;2.70;;;12.10;99.90;;;;;;4976168;28;20043;-72
2023/04/08 19:07:33;;;;;;;7.03;2.72;;;12.20;99.90;;;;;;4967911;28;20034;-70
2023/04/08 19:09:59;;;;;;;5.00;2.70;;;12.10;99.90;;;;;;4979085;28;20045;-70
2023/04/08 19:12:25;;;;;;;11.60;4.10;;;12.10;99.90;;;;;;4969029;28;20041;-69
2023/04/08 19:14:52;;;;;;;4.90;2.53;;;12.10;99.90;;;;;;4978673;28;20041;-72
2023/04/08 19:17:18;;;;;;;5.35;2.28;;;12.20;99.90;;;;;;4969357;28;20390;-71